sensor_id;sensor_type;location;lat;lon;timestamp;temperature;humidity
5344;DHT22;2694;48.954;8.928;2024-03-23T00:56:09;7.60;99.90
5344;DHT22;2694;48.954;8.928;2024-03-23T00:58:35;7.60;99.90
5344;DHT22;2694;48.954;8.928;2024-03-23T01:01:02;7.70;99.90
5344;DHT22;2694;48.954;8.928;2024-03-23T01:03:29;7.60;99.90
5344;DHT22;2694;48.954;8.928;2024-03-23T01:05:59;7.60;99.90
5344;DHT22;2694;48.954;8.928;2024-03-23T01:08:25;7.50;99.90
5344;DHT22;2694;48.954;8.928;2024-03-23T01:10:56;7.40;99.90
5344;DHT22;2694;48.954;8.928;2024-03-23T01:13:23;7.40;99.90
5344;DHT22;2694;48.954;8.928;2024-03-23T01:15:49;7.40;99.90
5344;DHT22;2694;48.954;8.928;2024-03-23T01:18:15;7.40;99.90
5344;DHT22;2694;48.954;8.928;2024-03-23T01:20:42;7.50;99.90
5344;DHT22;2694;48.954;8.928;2024-03-23T01:23:08;7.50;99.90
5344;DHT22;2694;48.954;8.928;2024-03-23T01:25:34;7.50;99.90
5344;DHT22;2694;48.954;8.928;2024-03-23T01:28:01;7.40;99.90
5344;DHT22;2694;48.954;8.928;2024-03-23T01:30:28;7.40;99.90
5344;DHT22;2694;48.954;8.928;2024-03-23T01:32:54;7.30;99.90
5344;DHT22;2694;48.954;8.928;2024-03-23T01:35:21;7.30;99.90
5344;DHT22;2694;48.954;8.928;2024-03-23T01:37:47;7.30;99.90
5344;DHT22;2694;48.954;8.928;2024-03-23T01:40:14;7.30;99.90
5344;DHT22;2694;48.954;8.928;2024-03-23T01:42:41;7.30;99.90
5344;DHT22;2694;48.954;8.928;2024-03-23T01:45:09;7.20;99.90
5344;DHT22;2694;48.954;8.928;2024-03-23T01:47:35;7.30;99.90
5344;DHT22;2694;48.954;8.928;2024-03-23T01:50:02;7.30;99.90
5344;DHT22;2694;48.954;8.928;2024-03-23T01:52:28;7.30;99.90
5344;DHT22;2694;48.954;8.928;2024-03-23T01:54:56;7.40;99.90
5344;DHT22;2694;48.954;8.928;2024-03-23T01:57:21;7.50;99.90
5344;DHT22;2694;48.954;8.928;2024-03-23T01:59:49;7.40;99.90
5344;DHT22;2694;48.954;8.928;2024-03-23T02:02:16;7.30;99.90
5344;DHT22;2694;48.954;8.928;2024-03-23T02:04:45;7.20;99.90
5344;DHT22;2694;48.954;8.928;2024-03-23T02:07:11;7.10;99.90
5344;DHT22;2694;48.954;8.928;2024-03-23T02:09:38;7.00;99.90
5344;DHT22;2694;48.954;8.928;2024-03-23T02:12:04;6.90;99.90
5344;DHT22;2694;48.954;8.928;2024-03-23T02:14:32;6.80;99.90
5344;DHT22;2694;48.954;8.928;2024-03-23T02:16:58;6.70;99.90
5344;DHT22;2694;48.954;8.928;2024-03-23T02:19:26;6.70;99.90
5344;DHT22;2694;48.954;8.928;2024-03-23T02:21:52;6.70;99.90
5344;DHT22;2694;48.954;8.928;2024-03-23T02:24:20;6.70;99.90
5344;DHT22;2694;48.954;8.928;2024-03-23T02:26:46;6.60;99.90
5344;DHT22;2694;48.954;8.928;2024-03-23T02:29:14;6.60;99.90
5344;DHT22;2694;48.954;8.928;2024-03-23T02:31:40;6.70;99.90
5344;DHT22;2694;48.954;8.928;2024-03-23T02:34:06;6.90;99.90
5344;DHT22;2694;48.954;8.928;2024-03-23T02:36:32;6.80;99.90
5344;DHT22;2694;48.954;8.928;2024-03-23T02:38:59;6.80;99.90
5344;DHT22;2694;48.954;8.928;2024-03-23T02:41:26;6.80;99.90
5344;DHT22;2694;48.954;8.928;2024-03-23T02:43:53;6.90;99.90
5344;DHT22;2694;48.954;8.928;2024-03-23T02:46:18;6.90;99.90
5344;DHT22;2694;48.954;8.928;2024-03-23T02:48:46;7.00;99.90
5344;DHT22;2694;48.954;8.928;2024-03-23T02:51:13;7.10;99.90
5344;DHT22;2694;48.954;8.928;2024-03-23T02:53:41;7.10;99.90
5344;DHT22;2694;48.954;8.928;2024-03-23T02:56:06;7.10;99.90
5344;DHT22;2694;48.954;8.928;2024-03-23T02:58:35;7.10;99.90
5344;DHT22;2694;48.954;8.928;2024-03-23T03:01:00;7.10;99.90
5344;DHT22;2694;48.954;8.928;2024-03-23T03:03:27;7.20;99.90
5344;DHT22;2694;48.954;8.928;2024-03-23T03:05:55;7.20;99.90
5344;DHT22;2694;48.954;8.928;2024-03-23T03:08:22;7.20;99.90
5344;DHT22;2694;48.954;8.928;2024-03-23T03:10:47;7.30;99.90
5344;DHT22;2694;48.954;8.928;2024-03-23T03:13:14;7.40;99.90
5344;DHT22;2694;48.954;8.928;2024-03-23T03:15:42;7.50;99.90
5344;DHT22;2694;48.954;8.928;2024-03-23T03:18:09;7.50;99.90
5344;DHT22;2694;48.954;8.928;2024-03-23T03:20:37;7.50;99.90
5344;DHT22;2694;48.954;8.928;2024-03-23T03:23:04;7.50;99.90
5344;DHT22;2694;48.954;8.928;2024-03-23T03:25:30;7.60;99.90
5344;DHT22;2694;48.954;8.928;2024-03-23T03:27:57;7.70;99.90
5344;DHT22;2694;48.954;8.928;2024-03-23T03:30:23;7.80;99.90
5344;DHT22;2694;48.954;8.928;2024-03-23T03:32:53;7.90;99.90
5344;DHT22;2694;48.954;8.928;2024-03-23T03:35:18;8.00;99.90
5344;DHT22;2694;48.954;8.928;2024-03-23T03:37:45;8.10;99.90
5344;DHT22;2694;48.954;8.928;2024-03-23T03:40:12;8.20;99.90
5344;DHT22;2694;48.954;8.928;2024-03-23T03:42:40;8.20;99.90
5344;DHT22;2694;48.954;8.928;2024-03-23T03:45:06;8.30;99.90
5344;DHT22;2694;48.954;8.928;2024-03-23T03:47:33;8.20;99.90
5344;DHT22;2694;48.954;8.928;2024-03-23T03:50:00;8.30;99.90
5344;DHT22;2694;48.954;8.928;2024-03-23T03:52:27;8.30;99.90
5344;DHT22;2694;48.954;8.928;2024-03-23T03:55:01;8.40;99.90
5344;DHT22;2694;48.954;8.928;2024-03-23T03:57:28;8.50;99.90
5344;DHT22;2694;48.954;8.928;2024-03-23T03:59:54;8.60;99.90
5344;DHT22;2694;48.954;8.928;2024-03-23T04:02:21;8.80;99.90
5344;DHT22;2694;48.954;8.928;2024-03-23T04:04:46;9.40;99.90
5344;DHT22;2694;48.954;8.928;2024-03-23T04:07:15;9.90;99.90
5344;DHT22;2694;48.954;8.928;2024-03-23T04:09:40;10.20;99.90
5344;DHT22;2694;48.954;8.928;2024-03-23T04:12:07;10.50;99.90
5344;DHT22;2694;48.954;8.928;2024-03-23T04:14:33;10.60;99.90
5344;DHT22;2694;48.954;8.928;2024-03-23T04:17:00;10.60;99.90
5344;DHT22;2694;48.954;8.928;2024-03-23T04:19:26;10.60;99.90
5344;DHT22;2694;48.954;8.928;2024-03-23T04:21:52;10.60;99.90
5344;DHT22;2694;48.954;8.928;2024-03-23T04:24:19;10.50;99.90
5344;DHT22;2694;48.954;8.928;2024-03-23T04:26:48;10.50;99.90
5344;DHT22;2694;48.954;8.928;2024-03-23T04:29:13;10.50;99.90
5344;DHT22;2694;48.954;8.928;2024-03-23T04:31:40;10.40;99.90
5344;DHT22;2694;48.954;8.928;2024-03-23T04:34:06;10.50;99.90
5344;DHT22;2694;48.954;8.928;2024-03-23T04:36:32;10.60;99.90
5344;DHT22;2694;48.954;8.928;2024-03-23T04:39:00;10.60;99.90
5344;DHT22;2694;48.954;8.928;2024-03-23T04:41:28;10.60;99.90
5344;DHT22;2694;48.954;8.928;2024-03-23T04:43:55;10.50;99.90
5344;DHT22;2694;48.954;8.928;2024-03-23T04:46:22;10.60;99.90
5344;DHT22;2694;48.954;8.928;2024-03-23T04:48:49;10.60;99.90
5344;DHT22;2694;48.954;8.928;2024-03-23T04:51:20;10.60;99.90
5344;DHT22;2694;48.954;8.928;2024-03-23T04:53:47;10.50;99.90
5344;DHT22;2694;48.954;8.928;2024-03-23T04:56:14;10.40;99.90
5344;DHT22;2694;48.954;8.928;2024-03-23T04:58:42;10.30;99.90
5344;DHT22;2694;48.954;8.928;2024-03-23T05:01:09;10.20;99.90
5344;DHT22;2694;48.954;8.928;2024-03-23T05:03:36;10.20;99.90
5344;DHT22;2694;48.954;8.928;2024-03-23T05:06:02;10.10;99.90
5344;DHT22;2694;48.954;8.928;2024-03-23T05:08:28;10.10;99.90
5344;DHT22;2694;48.954;8.928;2024-03-23T05:10:54;10.00;99.90
5344;DHT22;2694;48.954;8.928;2024-03-23T05:13:21;10.00;99.90
5344;DHT22;2694;48.954;8.928;2024-03-23T05:15:52;10.00;99.90
5344;DHT22;2694;48.954;8.928;2024-03-23T05:18:19;10.00;99.90
5344;DHT22;2694;48.954;8.928;2024-03-23T05:20:45;10.00;99.90
5344;DHT22;2694;48.954;8.928;2024-03-23T05:23:11;9.90;99.90
5344;DHT22;2694;48.954;8.928;2024-03-23T05:25:37;9.90;99.90
5344;DHT22;2694;48.954;8.928;2024-03-23T05:28:04;9.80;99.90
5344;DHT22;2694;48.954;8.928;2024-03-23T05:30:30;9.80;99.90
5344;DHT22;2694;48.954;8.928;2024-03-23T05:32:59;9.70;99.90
5344;DHT22;2694;48.954;8.928;2024-03-23T05:35:24;9.60;99.90
5344;DHT22;2694;48.954;8.928;2024-03-23T05:37:51;9.60;99.90
5344;DHT22;2694;48.954;8.928;2024-03-23T05:40:17;9.50;99.90
5344;DHT22;2694;48.954;8.928;2024-03-23T05:42:44;9.50;99.90
5344;DHT22;2694;48.954;8.928;2024-03-23T05:45:09;9.40;99.90
5344;DHT22;2694;48.954;8.928;2024-03-23T05:47:37;9.40;99.90
5344;DHT22;2694;48.954;8.928;2024-03-23T05:50:05;9.40;99.90
5344;DHT22;2694;48.954;8.928;2024-03-23T05:52:32;9.30;99.90
5344;DHT22;2694;48.954;8.928;2024-03-23T05:54:58;9.30;99.90
5344;DHT22;2694;48.954;8.928;2024-03-23T05:57:24;9.30;99.90
5344;DHT22;2694;48.954;8.928;2024-03-23T05:59:51;9.30;99.90
5344;DHT22;2694;48.954;8.928;2024-03-23T06:02:18;9.20;99.90
5344;DHT22;2694;48.954;8.928;2024-03-23T06:04:45;9.20;99.90
5344;DHT22;2694;48.954;8.928;2024-03-23T06:07:13;9.10;99.90
5344;DHT22;2694;48.954;8.928;2024-03-23T06:09:40;9.10;99.90
5344;DHT22;2694;48.954;8.928;2024-03-23T06:12:06;9.00;99.90
5344;DHT22;2694;48.954;8.928;2024-03-23T06:14:33;9.00;99.90
5344;DHT22;2694;48.954;8.928;2024-03-23T06:16:59;9.00;99.90
5344;DHT22;2694;48.954;8.928;2024-03-23T06:19:27;8.90;99.90
5344;DHT22;2694;48.954;8.928;2024-03-23T06:21:53;8.90;99.90
5344;DHT22;2694;48.954;8.928;2024-03-23T06:24:21;8.80;99.90
5344;DHT22;2694;48.954;8.928;2024-03-23T06:26:47;8.90;99.90
5344;DHT22;2694;48.954;8.928;2024-03-23T06:29:14;8.70;99.90
5344;DHT22;2694;48.954;8.928;2024-03-23T06:31:40;8.80;99.90
5344;DHT22;2694;48.954;8.928;2024-03-23T06:34:06;8.70;99.90
5344;DHT22;2694;48.954;8.928;2024-03-23T06:36:32;8.70;99.90
5344;DHT22;2694;48.954;8.928;2024-03-23T06:38:59;8.60;99.90
5344;DHT22;2694;48.954;8.928;2024-03-23T06:41:26;8.70;99.90
5344;DHT22;2694;48.954;8.928;2024-03-23T06:43:53;8.70;99.90
5344;DHT22;2694;48.954;8.928;2024-03-23T06:46:19;8.80;99.90
5344;DHT22;2694;48.954;8.928;2024-03-23T06:48:46;8.80;99.90
5344;DHT22;2694;48.954;8.928;2024-03-23T06:51:11;8.80;99.90
5344;DHT22;2694;48.954;8.928;2024-03-23T06:53:38;8.90;99.90
5344;DHT22;2694;48.954;8.928;2024-03-23T06:56:04;8.80;99.90
5344;DHT22;2694;48.954;8.928;2024-03-23T06:58:32;8.80;99.90
5344;DHT22;2694;48.954;8.928;2024-03-23T07:00:58;8.80;99.90
5344;DHT22;2694;48.954;8.928;2024-03-23T07:03:25;8.80;99.90
5344;DHT22;2694;48.954;8.928;2024-03-23T07:05:51;8.80;99.90
5344;DHT22;2694;48.954;8.928;2024-03-23T07:08:18;8.70;99.90
5344;DHT22;2694;48.954;8.928;2024-03-23T07:10:47;8.60;99.90
5344;DHT22;2694;48.954;8.928;2024-03-23T07:13:14;8.60;99.90
5344;DHT22;2694;48.954;8.928;2024-03-23T07:15:41;8.50;99.90
5344;DHT22;2694;48.954;8.928;2024-03-23T07:18:08;8.50;99.90
5344;DHT22;2694;48.954;8.928;2024-03-23T07:20:33;8.50;99.90
5344;DHT22;2694;48.954;8.928;2024-03-23T07:23:00;8.60;99.90
5344;DHT22;2694;48.954;8.928;2024-03-23T07:25:26;8.50;99.90
5344;DHT22;2694;48.954;8.928;2024-03-23T07:27:54;8.60;99.90
5344;DHT22;2694;48.954;8.928;2024-03-23T07:30:20;8.50;99.90
5344;DHT22;2694;48.954;8.928;2024-03-23T07:32:48;8.60;99.90
5344;DHT22;2694;48.954;8.928;2024-03-23T07:35:14;8.70;99.90
5344;DHT22;2694;48.954;8.928;2024-03-23T07:37:41;8.90;99.90
5344;DHT22;2694;48.954;8.928;2024-03-23T07:40:08;8.90;99.90
5344;DHT22;2694;48.954;8.928;2024-03-23T07:42:35;8.90;99.90
5344;DHT22;2694;48.954;8.928;2024-03-23T07:45:00;8.80;99.90
5344;DHT22;2694;48.954;8.928;2024-03-23T07:47:27;8.70;99.90
5344;DHT22;2694;48.954;8.928;2024-03-23T07:49:54;8.60;99.90
5344;DHT22;2694;48.954;8.928;2024-03-23T07:52:23;8.60;99.90
5344;DHT22;2694;48.954;8.928;2024-03-23T07:54:48;8.40;99.90
5344;DHT22;2694;48.954;8.928;2024-03-23T07:57:15;8.50;99.90
5344;DHT22;2694;48.954;8.928;2024-03-23T07:59:41;8.50;99.90
5344;DHT22;2694;48.954;8.928;2024-03-23T08:02:09;8.40;99.90
5344;DHT22;2694;48.954;8.928;2024-03-23T08:04:37;8.10;99.90
5344;DHT22;2694;48.954;8.928;2024-03-23T08:07:05;7.90;99.90
5344;DHT22;2694;48.954;8.928;2024-03-23T08:09:31;7.80;99.90
5344;DHT22;2694;48.954;8.928;2024-03-23T08:11:58;7.90;99.90
5344;DHT22;2694;48.954;8.928;2024-03-23T08:14:23;8.00;99.90
5344;DHT22;2694;48.954;8.928;2024-03-23T08:16:50;8.30;99.90
5344;DHT22;2694;48.954;8.928;2024-03-23T08:19:16;8.80;99.90
5344;DHT22;2694;48.954;8.928;2024-03-23T08:21:43;8.80;99.90
5344;DHT22;2694;48.954;8.928;2024-03-23T08:24:10;8.70;99.90
5344;DHT22;2694;48.954;8.928;2024-03-23T08:26:37;8.70;99.90
5344;DHT22;2694;48.954;8.928;2024-03-23T08:29:03;8.60;99.90
5344;DHT22;2694;48.954;8.928;2024-03-23T08:31:30;8.60;99.90
5344;DHT22;2694;48.954;8.928;2024-03-23T08:33:55;8.60;99.90
5344;DHT22;2694;48.954;8.928;2024-03-23T08:36:22;8.60;99.90
5344;DHT22;2694;48.954;8.928;2024-03-23T08:38:49;8.70;99.90
5344;DHT22;2694;48.954;8.928;2024-03-23T08:41:20;8.90;99.90
5344;DHT22;2694;48.954;8.928;2024-03-23T08:43:46;8.90;99.90
5344;DHT22;2694;48.954;8.928;2024-03-23T08:46:14;8.90;99.90
5344;DHT22;2694;48.954;8.928;2024-03-23T08:48:41;8.70;99.90
5344;DHT22;2694;48.954;8.928;2024-03-23T08:51:10;8.80;99.90
5344;DHT22;2694;48.954;8.928;2024-03-23T08:53:37;8.80;99.90
5344;DHT22;2694;48.954;8.928;2024-03-23T08:56:04;8.90;99.90
5344;DHT22;2694;48.954;8.928;2024-03-23T08:58:34;8.80;99.90
5344;DHT22;2694;48.954;8.928;2024-03-23T09:01:04;8.60;99.90
5344;DHT22;2694;48.954;8.928;2024-03-23T09:03:31;8.40;99.90
5344;DHT22;2694;48.954;8.928;2024-03-23T09:05:57;8.30;99.90
5344;DHT22;2694;48.954;8.928;2024-03-23T09:08:24;8.20;99.90
5344;DHT22;2694;48.954;8.928;2024-03-23T09:10:52;8.30;99.90
5344;DHT22;2694;48.954;8.928;2024-03-23T09:13:19;8.20;99.90
5344;DHT22;2694;48.954;8.928;2024-03-23T09:15:48;8.30;99.90
5344;DHT22;2694;48.954;8.928;2024-03-23T09:18:15;8.50;99.90
5344;DHT22;2694;48.954;8.928;2024-03-23T09:20:40;8.70;99.90
5344;DHT22;2694;48.954;8.928;2024-03-23T09:23:07;8.90;99.90
5344;DHT22;2694;48.954;8.928;2024-03-23T09:25:36;8.80;99.90
5344;DHT22;2694;48.954;8.928;2024-03-23T09:28:03;8.70;99.90
5344;DHT22;2694;48.954;8.928;2024-03-23T09:30:29;8.60;99.90
5344;DHT22;2694;48.954;8.928;2024-03-23T09:32:57;8.50;99.90
5344;DHT22;2694;48.954;8.928;2024-03-23T09:35:23;8.80;99.90
5344;DHT22;2694;48.954;8.928;2024-03-23T09:37:50;9.20;99.90
5344;DHT22;2694;48.954;8.928;2024-03-23T09:40:15;9.40;99.90
5344;DHT22;2694;48.954;8.928;2024-03-23T09:42:42;9.60;99.90
5344;DHT22;2694;48.954;8.928;2024-03-23T09:45:18;9.90;99.90
5344;DHT22;2694;48.954;8.928;2024-03-23T09:47:46;9.90;99.90
5344;DHT22;2694;48.954;8.928;2024-03-23T09:50:14;10.10;99.90
5344;DHT22;2694;48.954;8.928;2024-03-23T09:52:40;9.90;99.90
5344;DHT22;2694;48.954;8.928;2024-03-23T09:55:08;10.30;99.90
5344;DHT22;2694;48.954;8.928;2024-03-23T09:57:35;10.30;99.90
5344;DHT22;2694;48.954;8.928;2024-03-23T10:00:00;10.10;99.90
5344;DHT22;2694;48.954;8.928;2024-03-23T10:02:28;9.80;99.90
5344;DHT22;2694;48.954;8.928;2024-03-23T10:04:54;9.50;99.90
5344;DHT22;2694;48.954;8.928;2024-03-23T10:07:22;9.20;99.90
5344;DHT22;2694;48.954;8.928;2024-03-23T10:09:48;9.00;99.90
5344;DHT22;2694;48.954;8.928;2024-03-23T10:12:18;9.20;99.90
5344;DHT22;2694;48.954;8.928;2024-03-23T10:14:44;9.40;99.90
5344;DHT22;2694;48.954;8.928;2024-03-23T10:17:13;9.50;99.90
5344;DHT22;2694;48.954;8.928;2024-03-23T10:19:43;9.60;99.90
5344;DHT22;2694;48.954;8.928;2024-03-23T10:22:14;9.60;99.90
5344;DHT22;2694;48.954;8.928;2024-03-23T10:24:42;9.50;99.90
5344;DHT22;2694;48.954;8.928;2024-03-23T10:27:08;9.60;99.90
5344;DHT22;2694;48.954;8.928;2024-03-23T10:29:34;9.20;99.90
5344;DHT22;2694;48.954;8.928;2024-03-23T10:32:08;9.10;99.90
5344;DHT22;2694;48.954;8.928;2024-03-23T10:34:34;8.70;99.90
5344;DHT22;2694;48.954;8.928;2024-03-23T10:37:03;8.30;99.90
5344;DHT22;2694;48.954;8.928;2024-03-23T10:39:31;8.00;99.90
5344;DHT22;2694;48.954;8.928;2024-03-23T10:42:01;7.80;99.90
5344;DHT22;2694;48.954;8.928;2024-03-23T10:44:28;7.50;99.90
5344;DHT22;2694;48.954;8.928;2024-03-23T10:46:56;7.30;99.90
5344;DHT22;2694;48.954;8.928;2024-03-23T10:49:26;7.20;99.90
5344;DHT22;2694;48.954;8.928;2024-03-23T10:51:55;7.00;99.90
5344;DHT22;2694;48.954;8.928;2024-03-23T10:54:22;6.90;99.90
5344;DHT22;2694;48.954;8.928;2024-03-23T10:56:53;6.80;99.90
5344;DHT22;2694;48.954;8.928;2024-03-23T10:59:22;6.90;99.90
5344;DHT22;2694;48.954;8.928;2024-03-23T11:01:55;6.90;99.90
5344;DHT22;2694;48.954;8.928;2024-03-23T11:04:32;7.00;99.90
5344;DHT22;2694;48.954;8.928;2024-03-23T11:06:59;7.10;99.90
5344;DHT22;2694;48.954;8.928;2024-03-23T11:09:41;7.30;99.90
5344;DHT22;2694;48.954;8.928;2024-03-23T11:12:29;7.60;99.90
5344;DHT22;2694;48.954;8.928;2024-03-23T11:15:02;8.00;99.90
5344;DHT22;2694;48.954;8.928;2024-03-23T11:17:29;8.20;99.90
5344;DHT22;2694;48.954;8.928;2024-03-23T11:19:56;8.50;99.90
5344;DHT22;2694;48.954;8.928;2024-03-23T11:22:42;8.60;99.90
5344;DHT22;2694;48.954;8.928;2024-03-23T11:25:16;8.70;99.90
5344;DHT22;2694;48.954;8.928;2024-03-23T11:27:44;8.90;99.90
5344;DHT22;2694;48.954;8.928;2024-03-23T11:30:16;9.10;99.90
5344;DHT22;2694;48.954;8.928;2024-03-23T11:32:44;9.30;99.90
5344;DHT22;2694;48.954;8.928;2024-03-23T11:35:10;9.20;99.90
5344;DHT22;2694;48.954;8.928;2024-03-23T11:37:37;9.20;99.90
5344;DHT22;2694;48.954;8.928;2024-03-23T11:40:19;9.10;99.90
5344;DHT22;2694;48.954;8.928;2024-03-23T11:42:46;9.30;99.90
5344;DHT22;2694;48.954;8.928;2024-03-23T11:45:13;9.40;99.90
5344;DHT22;2694;48.954;8.928;2024-03-23T11:47:43;9.60;99.90
5344;DHT22;2694;48.954;8.928;2024-03-23T11:50:19;9.70;99.90
5344;DHT22;2694;48.954;8.928;2024-03-23T11:52:50;9.80;99.90
5344;DHT22;2694;48.954;8.928;2024-03-23T11:55:16;9.90;99.90
5344;DHT22;2694;48.954;8.928;2024-03-23T11:57:43;10.20;99.90
5344;DHT22;2694;48.954;8.928;2024-03-23T12:00:21;10.50;99.90
5344;DHT22;2694;48.954;8.928;2024-03-23T12:02:49;10.60;99.90
5344;DHT22;2694;48.954;8.928;2024-03-23T12:05:15;10.80;99.90
5344;DHT22;2694;48.954;8.928;2024-03-23T12:07:42;10.90;99.90
5344;DHT22;2694;48.954;8.928;2024-03-23T12:10:08;10.60;99.90
5344;DHT22;2694;48.954;8.928;2024-03-23T12:12:35;10.40;99.90
5344;DHT22;2694;48.954;8.928;2024-03-23T12:15:02;10.40;99.90
5344;DHT22;2694;48.954;8.928;2024-03-23T12:17:30;10.60;99.90
5344;DHT22;2694;48.954;8.928;2024-03-23T12:19:57;10.40;99.90
5344;DHT22;2694;48.954;8.928;2024-03-23T12:22:25;10.30;99.90
5344;DHT22;2694;48.954;8.928;2024-03-23T12:24:51;10.40;99.90
5344;DHT22;2694;48.954;8.928;2024-03-23T12:27:18;10.40;99.90
5344;DHT22;2694;48.954;8.928;2024-03-23T12:29:44;10.70;99.90
5344;DHT22;2694;48.954;8.928;2024-03-23T12:32:12;11.10;99.90
5344;DHT22;2694;48.954;8.928;2024-03-23T12:34:39;11.20;99.90
5344;DHT22;2694;48.954;8.928;2024-03-23T12:37:07;11.00;99.90
5344;DHT22;2694;48.954;8.928;2024-03-23T12:39:33;10.80;99.90
5344;DHT22;2694;48.954;8.928;2024-03-23T12:42:01;10.60;99.90
5344;DHT22;2694;48.954;8.928;2024-03-23T12:44:29;10.60;99.90
5344;DHT22;2694;48.954;8.928;2024-03-23T12:46:55;10.40;99.90
5344;DHT22;2694;48.954;8.928;2024-03-23T12:49:22;10.30;99.90
5344;DHT22;2694;48.954;8.928;2024-03-23T12:51:53;10.40;99.90
5344;DHT22;2694;48.954;8.928;2024-03-23T12:54:22;10.60;99.90
5344;DHT22;2694;48.954;8.928;2024-03-23T12:56:48;10.80;99.90
5344;DHT22;2694;48.954;8.928;2024-03-23T12:59:15;10.70;99.90
5344;DHT22;2694;48.954;8.928;2024-03-23T13:01:42;10.80;99.70
5344;DHT22;2694;48.954;8.928;2024-03-23T13:04:08;10.80;98.30
5344;DHT22;2694;48.954;8.928;2024-03-23T13:06:34;11.00;98.90
5344;DHT22;2694;48.954;8.928;2024-03-23T13:09:01;11.20;99.10
5344;DHT22;2694;48.954;8.928;2024-03-23T13:11:28;11.60;99.90
5344;DHT22;2694;48.954;8.928;2024-03-23T13:13:55;11.60;99.90
5344;DHT22;2694;48.954;8.928;2024-03-23T13:16:21;11.40;99.80
5344;DHT22;2694;48.954;8.928;2024-03-23T13:18:47;11.30;99.50
5344;DHT22;2694;48.954;8.928;2024-03-23T13:21:13;11.20;99.90
5344;DHT22;2694;48.954;8.928;2024-03-23T13:23:40;11.30;99.50
5344;DHT22;2694;48.954;8.928;2024-03-23T13:26:08;11.30;99.90
5344;DHT22;2694;48.954;8.928;2024-03-23T13:28:36;11.40;99.90
5344;DHT22;2694;48.954;8.928;2024-03-23T13:31:02;11.20;99.40
5344;DHT22;2694;48.954;8.928;2024-03-23T13:33:29;10.80;99.90
5344;DHT22;2694;48.954;8.928;2024-03-23T13:35:55;10.10;99.90
5344;DHT22;2694;48.954;8.928;2024-03-23T13:38:23;9.20;99.90
5344;DHT22;2694;48.954;8.928;2024-03-23T13:40:52;8.80;99.90
5344;DHT22;2694;48.954;8.928;2024-03-23T13:43:20;8.60;99.90
5344;DHT22;2694;48.954;8.928;2024-03-23T13:45:47;8.50;99.90
5344;DHT22;2694;48.954;8.928;2024-03-23T13:48:15;8.40;99.90
5344;DHT22;2694;48.954;8.928;2024-03-23T13:50:41;8.40;99.90
5344;DHT22;2694;48.954;8.928;2024-03-23T13:53:08;8.30;99.90
5344;DHT22;2694;48.954;8.928;2024-03-23T13:55:34;8.30;99.90
5344;DHT22;2694;48.954;8.928;2024-03-23T13:58:01;8.40;99.90
5344;DHT22;2694;48.954;8.928;2024-03-23T14:00:27;8.60;99.90
5344;DHT22;2694;48.954;8.928;2024-03-23T14:02:55;8.90;99.90
5344;DHT22;2694;48.954;8.928;2024-03-23T14:05:20;9.30;99.90
5344;DHT22;2694;48.954;8.928;2024-03-23T14:07:47;9.30;99.90
5344;DHT22;2694;48.954;8.928;2024-03-23T14:10:13;9.10;99.90
5344;DHT22;2694;48.954;8.928;2024-03-23T14:12:39;9.30;99.90
5344;DHT22;2694;48.954;8.928;2024-03-23T14:15:07;9.50;99.90
5344;DHT22;2694;48.954;8.928;2024-03-23T14:17:34;9.70;99.90
5344;DHT22;2694;48.954;8.928;2024-03-23T14:20:01;9.20;99.90
5344;DHT22;2694;48.954;8.928;2024-03-23T14:22:30;9.40;99.90
5344;DHT22;2694;48.954;8.928;2024-03-23T14:24:56;9.50;99.90
5344;DHT22;2694;48.954;8.928;2024-03-23T14:27:23;9.40;99.90
5344;DHT22;2694;48.954;8.928;2024-03-23T14:29:49;9.30;99.90
5344;DHT22;2694;48.954;8.928;2024-03-23T14:32:16;9.20;99.90
5344;DHT22;2694;48.954;8.928;2024-03-23T14:34:42;9.30;99.90
5344;DHT22;2694;48.954;8.928;2024-03-23T14:37:10;9.40;99.90
5344;DHT22;2694;48.954;8.928;2024-03-23T14:39:36;9.30;99.90
5344;DHT22;2694;48.954;8.928;2024-03-23T14:42:05;9.30;99.90
5344;DHT22;2694;48.954;8.928;2024-03-23T14:44:31;9.40;99.90
5344;DHT22;2694;48.954;8.928;2024-03-23T14:46:58;9.50;99.90
5344;DHT22;2694;48.954;8.928;2024-03-23T14:49:24;9.70;99.90
5344;DHT22;2694;48.954;8.928;2024-03-23T14:51:51;9.70;99.90
5344;DHT22;2694;48.954;8.928;2024-03-23T14:54:18;9.60;99.90
5344;DHT22;2694;48.954;8.928;2024-03-23T14:56:45;9.40;99.90
5344;DHT22;2694;48.954;8.928;2024-03-23T14:59:13;9.10;99.90
5344;DHT22;2694;48.954;8.928;2024-03-23T15:01:39;8.90;99.90
5344;DHT22;2694;48.954;8.928;2024-03-23T15:04:05;8.90;99.90
5344;DHT22;2694;48.954;8.928;2024-03-23T15:06:32;8.90;99.90
5344;DHT22;2694;48.954;8.928;2024-03-23T15:08:59;9.20;99.90
5344;DHT22;2694;48.954;8.928;2024-03-23T15:11:27;9.50;99.90
5344;DHT22;2694;48.954;8.928;2024-03-23T15:13:52;9.60;99.90
5344;DHT22;2694;48.954;8.928;2024-03-23T15:16:20;9.60;99.90
5344;DHT22;2694;48.954;8.928;2024-03-23T15:18:46;9.30;99.90
5344;DHT22;2694;48.954;8.928;2024-03-23T15:21:14;9.10;99.90
5344;DHT22;2694;48.954;8.928;2024-03-23T15:23:45;9.10;99.90
5344;DHT22;2694;48.954;8.928;2024-03-23T15:26:12;9.00;99.90
5344;DHT22;2694;48.954;8.928;2024-03-23T15:28:39;8.90;99.90
5344;DHT22;2694;48.954;8.928;2024-03-23T15:31:07;8.90;99.90
5344;DHT22;2694;48.954;8.928;2024-03-23T15:33:34;8.80;99.90
5344;DHT22;2694;48.954;8.928;2024-03-23T15:36:00;8.70;99.90
5344;DHT22;2694;48.954;8.928;2024-03-23T15:38:26;8.80;99.90
5344;DHT22;2694;48.954;8.928;2024-03-23T15:40:54;8.80;99.90
5344;DHT22;2694;48.954;8.928;2024-03-23T15:43:20;8.70;99.90
5344;DHT22;2694;48.954;8.928;2024-03-23T15:45:55;8.60;99.90
5344;DHT22;2694;48.954;8.928;2024-03-23T15:48:20;8.70;99.90
5344;DHT22;2694;48.954;8.928;2024-03-23T15:50:51;8.50;99.90
5344;DHT22;2694;48.954;8.928;2024-03-23T15:53:18;8.40;99.90
5344;DHT22;2694;48.954;8.928;2024-03-23T15:55:44;8.50;99.90
5344;DHT22;2694;48.954;8.928;2024-03-23T15:58:11;8.50;99.90
5344;DHT22;2694;48.954;8.928;2024-03-23T16:00:37;8.40;99.90
5344;DHT22;2694;48.954;8.928;2024-03-23T16:03:05;8.30;99.90
5344;DHT22;2694;48.954;8.928;2024-03-23T16:05:31;8.30;99.90
5344;DHT22;2694;48.954;8.928;2024-03-23T16:07:58;8.20;99.90
5344;DHT22;2694;48.954;8.928;2024-03-23T16:10:24;8.30;99.90
5344;DHT22;2694;48.954;8.928;2024-03-23T16:12:50;8.40;99.90
5344;DHT22;2694;48.954;8.928;2024-03-23T16:15:16;8.30;99.90
5344;DHT22;2694;48.954;8.928;2024-03-23T16:17:43;8.20;99.90
5344;DHT22;2694;48.954;8.928;2024-03-23T16:20:11;8.20;99.90
5344;DHT22;2694;48.954;8.928;2024-03-23T16:22:38;8.10;99.90
5344;DHT22;2694;48.954;8.928;2024-03-23T16:25:05;8.00;99.90
5344;DHT22;2694;48.954;8.928;2024-03-23T16:27:32;7.80;99.90
5344;DHT22;2694;48.954;8.928;2024-03-23T16:29:58;7.70;99.90
5344;DHT22;2694;48.954;8.928;2024-03-23T16:32:25;7.60;99.90
5344;DHT22;2694;48.954;8.928;2024-03-23T16:34:52;7.60;99.90
5344;DHT22;2694;48.954;8.928;2024-03-23T16:37:21;7.70;99.90
5344;DHT22;2694;48.954;8.928;2024-03-23T16:39:46;7.60;99.90
5344;DHT22;2694;48.954;8.928;2024-03-23T16:42:13;7.60;99.90
5344;DHT22;2694;48.954;8.928;2024-03-23T16:44:39;7.60;99.90
5344;DHT22;2694;48.954;8.928;2024-03-23T16:47:05;7.50;99.90
5344;DHT22;2694;48.954;8.928;2024-03-23T16:49:32;7.60;99.90
5344;DHT22;2694;48.954;8.928;2024-03-23T16:51:59;7.70;99.90
5344;DHT22;2694;48.954;8.928;2024-03-23T16:54:27;7.70;99.90
5344;DHT22;2694;48.954;8.928;2024-03-23T16:56:54;7.70;99.90
5344;DHT22;2694;48.954;8.928;2024-03-23T16:59:19;7.40;99.90
5344;DHT22;2694;48.954;8.928;2024-03-23T17:01:46;7.10;99.90
5344;DHT22;2694;48.954;8.928;2024-03-23T17:04:12;6.70;99.90
5344;DHT22;2694;48.954;8.928;2024-03-23T17:06:39;6.10;99.90
5344;DHT22;2694;48.954;8.928;2024-03-23T17:09:05;5.90;99.90